createdAt,value
2023-02-13T00:08:48.727Z,10.10
2023-02-13T00:18:49.950Z,9.52
2023-02-13T00:28:51.197Z,9.55
2023-02-13T00:38:52.457Z,9.38
2023-02-13T00:48:53.733Z,9.27
2023-02-13T00:58:55.046Z,9.50
2023-02-13T01:08:56.462Z,9.18
2023-02-13T01:18:57.792Z,8.80
2023-02-13T01:28:59.091Z,9.52
2023-02-13T01:39:00.388Z,9.40
2023-02-13T01:49:01.692Z,9.50
2023-02-13T01:59:02.992Z,9.50
2023-02-13T02:09:04.248Z,8.98
2023-02-13T02:19:05.549Z,9.13
2023-02-13T02:29:06.805Z,9.80
2023-02-13T02:39:08.095Z,9.73
2023-02-13T02:49:09.363Z,8.75
2023-02-13T02:59:10.685Z,9.02
2023-02-13T03:09:11.992Z,9.00
2023-02-13T03:19:13.239Z,9.52
2023-02-13T03:29:14.569Z,8.93
2023-02-13T03:39:15.850Z,8.55
2023-02-13T03:49:17.116Z,8.32
2023-02-13T03:59:18.408Z,8.85
2023-02-13T04:09:19.664Z,8.02
2023-02-13T04:19:21.949Z,9.15
2023-02-13T04:29:23.284Z,8.60
2023-02-13T04:39:24.581Z,8.38
2023-02-13T04:49:25.823Z,7.85
2023-02-13T04:59:27.090Z,7.43
2023-02-13T05:09:28.319Z,7.30
2023-02-13T05:19:29.581Z,8.55
2023-02-13T05:29:30.834Z,8.55
2023-02-13T05:39:32.167Z,7.22
2023-02-13T05:49:33.413Z,8.48
2023-02-13T05:59:34.694Z,8.00
2023-02-13T06:09:36.069Z,7.72
2023-02-13T06:19:37.332Z,7.03
2023-02-13T06:29:38.583Z,7.18
2023-02-13T06:39:39.821Z,7.55
2023-02-13T06:49:41.350Z,7.18
2023-02-13T06:59:42.641Z,6.78
2023-02-13T07:09:44.210Z,8.02
2023-02-13T07:19:45.587Z,10.38
2023-02-13T07:29:47.208Z,7.30
2023-02-13T07:39:48.921Z,6.80
2023-02-13T07:49:50.363Z,7.70
2023-02-13T07:59:54.317Z,7.72
2023-02-13T08:10:02.135Z,6.68
2023-02-13T08:20:10.209Z,8.55
2023-02-13T08:30:18.140Z,8.80
2023-02-13T08:40:28.736Z,7.38
2023-02-13T08:50:37.133Z,6.10
2023-02-13T09:00:45.167Z,6.70
2023-02-13T09:10:52.462Z,5.40
2023-02-13T09:21:00.159Z,8.50
2023-02-13T09:31:08.328Z,6.60
2023-02-13T09:41:17.329Z,5.38
2023-02-13T09:51:25.192Z,5.30
2023-02-13T10:01:33.864Z,5.82
2023-02-13T10:11:42.402Z,5.07
2023-02-13T10:21:50.170Z,4.60
2023-02-13T10:31:58.297Z,5.05
2023-02-13T10:42:05.240Z,4.65
2023-02-13T10:52:07.831Z,5.80
2023-02-13T11:12:33.665Z,5.00
2023-02-13T11:22:41.135Z,5.10
2023-02-13T11:32:45.006Z,4.80
2023-02-13T11:42:47.064Z,4.35
2023-02-13T12:03:20.715Z,4.30
2023-02-13T12:13:22.282Z,4.78
2023-02-13T12:23:30.165Z,5.80
2023-02-13T12:33:38.208Z,3.80
2023-02-13T12:43:46.178Z,5.53
2023-02-13T12:53:57.617Z,4.15
2023-02-13T13:04:02.482Z,4.88
2023-02-13T13:14:10.205Z,4.22
2023-02-13T13:24:18.220Z,3.80
2023-02-13T13:44:49.370Z,5.13
2023-02-13T13:54:50.620Z,4.68
2023-02-13T14:04:52.001Z,4.35
2023-02-13T14:14:59.480Z,4.00
2023-02-13T14:25:08.473Z,4.10
2023-02-13T14:35:17.283Z,5.03
2023-02-13T14:45:28.667Z,4.10
2023-02-13T14:55:31.369Z,5.63
2023-02-13T15:05:46.107Z,5.13
2023-02-13T15:15:49.655Z,4.00
2023-02-13T15:26:02.043Z,3.88
2023-02-13T15:36:06.661Z,4.13
2023-02-13T15:46:14.503Z,4.63
2023-02-13T15:56:22.502Z,4.97
2023-02-13T16:06:29.773Z,3.80
2023-02-13T16:27:04.396Z,3.17
2023-02-13T16:37:05.660Z,3.75
2023-02-13T16:47:07.166Z,3.13
2023-02-13T16:57:08.698Z,3.85
2023-02-13T17:07:10.083Z,4.18
2023-02-13T17:17:11.660Z,4.00
2023-02-13T17:27:13.309Z,5.45
2023-02-13T17:37:14.586Z,4.88
2023-02-13T17:47:16.164Z,4.32
2023-02-13T17:57:17.570Z,6.10
2023-02-13T18:07:18.964Z,5.65
2023-02-13T18:17:20.481Z,5.43
2023-02-13T18:27:22.046Z,5.82
2023-02-13T18:37:23.482Z,6.22
2023-02-13T18:47:24.859Z,6.88
2023-02-13T18:57:26.253Z,5.03
2023-02-13T19:07:27.501Z,5.50
2023-02-13T19:17:29.113Z,6.03
2023-02-13T19:27:30.404Z,6.38
2023-02-13T19:37:43.069Z,6.35
2023-02-13T19:47:45.559Z,7.30
2023-02-13T19:57:47.272Z,7.57
2023-02-13T20:07:48.506Z,8.52
2023-02-13T20:28:18.352Z,8.18
2023-02-13T20:38:19.653Z,8.75
2023-02-13T20:48:21.139Z,8.75
2023-02-13T20:58:22.499Z,9.30
2023-02-13T21:08:23.767Z,8.52
2023-02-13T21:18:25.316Z,13.07
2023-02-13T21:28:26.604Z,13.15
2023-02-13T21:38:27.847Z,13.05
2023-02-13T21:48:29.153Z,12.85
2023-02-13T21:58:30.769Z,13.60
2023-02-13T22:08:32.074Z,13.38
2023-02-13T22:18:33.340Z,11.82
2023-02-13T22:28:34.774Z,12.40
2023-02-13T22:38:36.038Z,13.30
2023-02-13T22:48:37.605Z,13.02
2023-02-13T22:58:38.883Z,12.07
2023-02-13T23:08:40.271Z,13.70
2023-02-13T23:18:41.798Z,14.70
2023-02-13T23:28:43.093Z,12.43
2023-02-13T23:38:44.354Z,12.23
2023-02-13T23:48:45.694Z,12.35
2023-02-13T23:58:47.022Z,12.68
